sensor_id;sensor_type;location;lat;lon;timestamp;P1;durP1;ratioP1;P2;durP2;ratioP2
9467;SDS011;4772;52.382;9.752;2022-09-25T00:00:37;30.43;;;24.53;;
9467;SDS011;4772;52.382;9.752;2022-09-25T00:03:03;27.10;;;22.53;;
9467;SDS011;4772;52.382;9.752;2022-09-25T00:05:29;30.30;;;23.47;;
9467;SDS011;4772;52.382;9.752;2022-09-25T00:07:55;27.57;;;23.40;;
9467;SDS011;4772;52.382;9.752;2022-09-25T00:10:22;34.53;;;23.30;;
9467;SDS011;4772;52.382;9.752;2022-09-25T00:12:49;32.03;;;24.70;;
9467;SDS011;4772;52.382;9.752;2022-09-25T00:15:15;31.80;;;24.00;;
9467;SDS011;4772;52.382;9.752;2022-09-25T00:17:42;33.70;;;23.70;;
9467;SDS011;4772;52.382;9.752;2022-09-25T00:20:08;33.90;;;25.23;;
9467;SDS011;4772;52.382;9.752;2022-09-25T00:22:34;37.47;;;25.20;;
9467;SDS011;4772;52.382;9.752;2022-09-25T00:25:00;41.30;;;25.83;;
9467;SDS011;4772;52.382;9.752;2022-09-25T00:27:27;40.13;;;26.20;;
9467;SDS011;4772;52.382;9.752;2022-09-25T00:29:53;39.47;;;25.87;;
9467;SDS011;4772;52.382;9.752;2022-09-25T00:32:20;42.53;;;26.83;;
9467;SDS011;4772;52.382;9.752;2022-09-25T00:34:46;38.10;;;25.63;;
9467;SDS011;4772;52.382;9.752;2022-09-25T00:37:11;44.13;;;26.33;;
9467;SDS011;4772;52.382;9.752;2022-09-25T00:39:38;43.27;;;26.47;;
9467;SDS011;4772;52.382;9.752;2022-09-25T00:42:03;41.10;;;25.27;;
9467;SDS011;4772;52.382;9.752;2022-09-25T00:49:51;44.03;;;25.60;;
9467;SDS011;4772;52.382;9.752;2022-09-25T00:52:17;42.10;;;24.53;;
9467;SDS011;4772;52.382;9.752;2022-09-25T00:54:45;39.17;;;24.60;;
9467;SDS011;4772;52.382;9.752;2022-09-25T00:57:12;40.27;;;25.90;;
9467;SDS011;4772;52.382;9.752;2022-09-25T00:59:40;43.13;;;24.73;;
9467;SDS011;4772;52.382;9.752;2022-09-25T01:02:08;44.90;;;25.27;;
9467;SDS011;4772;52.382;9.752;2022-09-25T01:04:38;40.37;;;24.97;;
9467;SDS011;4772;52.382;9.752;2022-09-25T01:07:05;45.03;;;26.83;;
9467;SDS011;4772;52.382;9.752;2022-09-25T01:09:33;45.13;;;27.20;;
9467;SDS011;4772;52.382;9.752;2022-09-25T01:12:00;45.60;;;27.80;;
9467;SDS011;4772;52.382;9.752;2022-09-25T01:14:26;46.57;;;27.87;;
9467;SDS011;4772;52.382;9.752;2022-09-25T01:16:55;44.83;;;27.93;;
9467;SDS011;4772;52.382;9.752;2022-09-25T01:22:15;50.37;;;29.73;;
9467;SDS011;4772;52.382;9.752;2022-09-25T01:25:09;52.23;;;31.60;;
9467;SDS011;4772;52.382;9.752;2022-09-25T01:27:41;54.60;;;30.60;;
9467;SDS011;4772;52.382;9.752;2022-09-25T01:30:14;50.97;;;30.80;;
9467;SDS011;4772;52.382;9.752;2022-09-25T01:33:00;49.73;;;30.97;;
9467;SDS011;4772;52.382;9.752;2022-09-25T01:40:43;54.70;;;31.83;;
9467;SDS011;4772;52.382;9.752;2022-09-25T01:43:14;57.00;;;33.67;;
9467;SDS011;4772;52.382;9.752;2022-09-25T01:46:01;55.13;;;32.53;;
9467;SDS011;4772;52.382;9.752;2022-09-25T01:48:29;50.27;;;33.17;;
9467;SDS011;4772;52.382;9.752;2022-09-25T01:51:00;50.70;;;32.93;;
9467;SDS011;4772;52.382;9.752;2022-09-25T01:53:28;52.67;;;32.37;;
9467;SDS011;4772;52.382;9.752;2022-09-25T01:56:04;51.53;;;33.80;;
9467;SDS011;4772;52.382;9.752;2022-09-25T02:01:06;48.73;;;32.13;;
9467;SDS011;4772;52.382;9.752;2022-09-25T02:03:40;47.90;;;33.10;;
9467;SDS011;4772;52.382;9.752;2022-09-25T02:06:08;48.20;;;32.40;;
9467;SDS011;4772;52.382;9.752;2022-09-25T02:08:37;50.00;;;34.90;;
9467;SDS011;4772;52.382;9.752;2022-09-25T02:11:04;47.57;;;33.87;;
9467;SDS011;4772;52.382;9.752;2022-09-25T02:13:53;50.73;;;36.70;;
9467;SDS011;4772;52.382;9.752;2022-09-25T02:16:28;56.90;;;35.53;;
9467;SDS011;4772;52.382;9.752;2022-09-25T02:18:55;55.10;;;36.67;;
9467;SDS011;4772;52.382;9.752;2022-09-25T02:22:22;56.70;;;38.93;;
9467;SDS011;4772;52.382;9.752;2022-09-25T02:27:04;60.90;;;41.73;;
9467;SDS011;4772;52.382;9.752;2022-09-25T02:29:30;64.53;;;42.13;;
9467;SDS011;4772;52.382;9.752;2022-09-25T02:31:57;64.67;;;41.83;;
9467;SDS011;4772;52.382;9.752;2022-09-25T02:34:24;64.63;;;42.50;;
9467;SDS011;4772;52.382;9.752;2022-09-25T02:36:50;65.43;;;42.27;;
9467;SDS011;4772;52.382;9.752;2022-09-25T02:39:18;60.17;;;39.53;;
9467;SDS011;4772;52.382;9.752;2022-09-25T02:42:04;59.00;;;40.40;;
9467;SDS011;4772;52.382;9.752;2022-09-25T02:44:58;58.50;;;38.77;;
9467;SDS011;4772;52.382;9.752;2022-09-25T02:53:32;53.67;;;35.67;;
9467;SDS011;4772;52.382;9.752;2022-09-25T02:55:44;49.90;;;36.17;;
9467;SDS011;4772;52.382;9.752;2022-09-25T02:58:18;54.07;;;35.93;;
9467;SDS011;4772;52.382;9.752;2022-09-25T03:00:47;55.90;;;36.87;;
9467;SDS011;4772;52.382;9.752;2022-09-25T03:03:15;51.07;;;35.07;;
9467;SDS011;4772;52.382;9.752;2022-09-25T03:05:42;49.87;;;34.43;;
9467;SDS011;4772;52.382;9.752;2022-09-25T03:08:08;46.87;;;33.67;;
9467;SDS011;4772;52.382;9.752;2022-09-25T03:10:53;49.80;;;32.80;;
9467;SDS011;4772;52.382;9.752;2022-09-25T03:13:20;47.93;;;33.47;;
9467;SDS011;4772;52.382;9.752;2022-09-25T03:15:51;45.50;;;32.63;;
9467;SDS011;4772;52.382;9.752;2022-09-25T03:18:18;44.43;;;31.90;;
9467;SDS011;4772;52.382;9.752;2022-09-25T03:20:45;43.87;;;31.33;;
9467;SDS011;4772;52.382;9.752;2022-09-25T03:23:11;41.90;;;30.47;;
9467;SDS011;4772;52.382;9.752;2022-09-25T03:25:38;39.07;;;30.97;;
9467;SDS011;4772;52.382;9.752;2022-09-25T03:28:10;38.27;;;28.40;;
9467;SDS011;4772;52.382;9.752;2022-09-25T03:30:37;37.97;;;28.57;;
9467;SDS011;4772;52.382;9.752;2022-09-25T03:33:05;36.40;;;29.67;;
9467;SDS011;4772;52.382;9.752;2022-09-25T03:35:31;36.53;;;28.70;;
9467;SDS011;4772;52.382;9.752;2022-09-25T03:37:57;34.80;;;28.90;;
9467;SDS011;4772;52.382;9.752;2022-09-25T03:40:23;39.67;;;29.63;;
9467;SDS011;4772;52.382;9.752;2022-09-25T03:42:49;33.73;;;27.77;;
9467;SDS011;4772;52.382;9.752;2022-09-25T03:45:15;33.57;;;26.40;;
9467;SDS011;4772;52.382;9.752;2022-09-25T03:47:41;36.77;;;28.10;;
9467;SDS011;4772;52.382;9.752;2022-09-25T03:50:07;34.97;;;26.70;;
9467;SDS011;4772;52.382;9.752;2022-09-25T03:52:33;32.17;;;26.10;;
9467;SDS011;4772;52.382;9.752;2022-09-25T03:54:59;35.60;;;26.33;;
9467;SDS011;4772;52.382;9.752;2022-09-25T03:57:25;30.87;;;25.07;;
9467;SDS011;4772;52.382;9.752;2022-09-25T03:59:51;31.23;;;24.70;;
9467;SDS011;4772;52.382;9.752;2022-09-25T04:02:17;29.37;;;24.97;;
9467;SDS011;4772;52.382;9.752;2022-09-25T04:04:43;28.13;;;22.73;;
9467;SDS011;4772;52.382;9.752;2022-09-25T04:07:10;30.50;;;23.53;;
9467;SDS011;4772;52.382;9.752;2022-09-25T04:09:36;33.33;;;23.93;;
9467;SDS011;4772;52.382;9.752;2022-09-25T04:12:02;31.30;;;23.27;;
9467;SDS011;4772;52.382;9.752;2022-09-25T04:14:31;31.43;;;22.50;;
9467;SDS011;4772;52.382;9.752;2022-09-25T04:16:57;28.03;;;21.83;;
9467;SDS011;4772;52.382;9.752;2022-09-25T04:19:23;27.23;;;22.13;;
9467;SDS011;4772;52.382;9.752;2022-09-25T04:21:49;26.30;;;22.13;;
9467;SDS011;4772;52.382;9.752;2022-09-25T04:24:15;29.07;;;21.23;;
9467;SDS011;4772;52.382;9.752;2022-09-25T04:26:59;25.37;;;21.23;;
9467;SDS011;4772;52.382;9.752;2022-09-25T04:29:25;26.40;;;20.97;;
9467;SDS011;4772;52.382;9.752;2022-09-25T04:31:51;30.67;;;21.63;;
9467;SDS011;4772;52.382;9.752;2022-09-25T04:34:36;26.60;;;20.83;;
9467;SDS011;4772;52.382;9.752;2022-09-25T04:37:02;25.67;;;20.23;;
9467;SDS011;4772;52.382;9.752;2022-09-25T04:39:28;29.00;;;20.77;;
9467;SDS011;4772;52.382;9.752;2022-09-25T04:41:54;27.27;;;20.17;;
9467;SDS011;4772;52.382;9.752;2022-09-25T04:44:20;25.93;;;19.47;;
9467;SDS011;4772;52.382;9.752;2022-09-25T04:46:46;25.03;;;19.20;;
9467;SDS011;4772;52.382;9.752;2022-09-25T04:49:12;27.00;;;19.17;;
9467;SDS011;4772;52.382;9.752;2022-09-25T04:51:38;27.03;;;19.63;;
9467;SDS011;4772;52.382;9.752;2022-09-25T04:54:04;25.63;;;19.07;;
9467;SDS011;4772;52.382;9.752;2022-09-25T04:56:30;21.40;;;17.17;;
9467;SDS011;4772;52.382;9.752;2022-09-25T04:58:56;23.63;;;17.60;;
9467;SDS011;4772;52.382;9.752;2022-09-25T05:01:22;26.10;;;17.00;;
9467;SDS011;4772;52.382;9.752;2022-09-25T05:03:48;24.53;;;17.53;;
9467;SDS011;4772;52.382;9.752;2022-09-25T05:06:17;25.20;;;17.13;;
9467;SDS011;4772;52.382;9.752;2022-09-25T05:08:43;27.33;;;17.10;;
9467;SDS011;4772;52.382;9.752;2022-09-25T05:11:09;24.30;;;16.97;;
9467;SDS011;4772;52.382;9.752;2022-09-25T05:13:35;21.47;;;16.40;;
9467;SDS011;4772;52.382;9.752;2022-09-25T05:16:01;22.33;;;15.83;;
9467;SDS011;4772;52.382;9.752;2022-09-25T05:18:27;21.10;;;15.57;;
9467;SDS011;4772;52.382;9.752;2022-09-25T05:20:53;23.13;;;15.90;;
9467;SDS011;4772;52.382;9.752;2022-09-25T05:23:19;26.70;;;15.23;;
9467;SDS011;4772;52.382;9.752;2022-09-25T05:25:54;25.93;;;15.47;;
9467;SDS011;4772;52.382;9.752;2022-09-25T05:28:26;21.53;;;14.73;;
9467;SDS011;4772;52.382;9.752;2022-09-25T05:30:52;21.03;;;14.20;;
9467;SDS011;4772;52.382;9.752;2022-09-25T05:33:19;21.53;;;14.27;;
9467;SDS011;4772;52.382;9.752;2022-09-25T05:35:45;22.13;;;13.30;;
9467;SDS011;4772;52.382;9.752;2022-09-25T05:38:12;21.30;;;14.00;;
9467;SDS011;4772;52.382;9.752;2022-09-25T05:40:38;17.93;;;12.60;;
9467;SDS011;4772;52.382;9.752;2022-09-25T05:43:04;17.57;;;12.67;;
9467;SDS011;4772;52.382;9.752;2022-09-25T05:45:31;17.63;;;11.97;;
9467;SDS011;4772;52.382;9.752;2022-09-25T05:48:02;20.27;;;11.90;;
9467;SDS011;4772;52.382;9.752;2022-09-25T05:50:28;17.70;;;12.40;;
9467;SDS011;4772;52.382;9.752;2022-09-25T05:52:56;16.10;;;11.63;;
9467;SDS011;4772;52.382;9.752;2022-09-25T05:55:22;18.67;;;10.83;;
9467;SDS011;4772;52.382;9.752;2022-09-25T05:57:48;16.23;;;11.43;;
9467;SDS011;4772;52.382;9.752;2022-09-25T06:00:14;16.50;;;12.30;;
9467;SDS011;4772;52.382;9.752;2022-09-25T06:02:41;15.73;;;10.73;;
9467;SDS011;4772;52.382;9.752;2022-09-25T06:05:07;18.07;;;11.30;;
9467;SDS011;4772;52.382;9.752;2022-09-25T06:07:34;19.70;;;11.90;;
9467;SDS011;4772;52.382;9.752;2022-09-25T06:10:00;15.63;;;10.03;;
9467;SDS011;4772;52.382;9.752;2022-09-25T06:12:29;19.13;;;9.90;;
9467;SDS011;4772;52.382;9.752;2022-09-25T06:14:55;14.73;;;9.87;;
9467;SDS011;4772;52.382;9.752;2022-09-25T06:17:22;22.53;;;10.50;;
9467;SDS011;4772;52.382;9.752;2022-09-25T06:19:48;17.37;;;9.63;;
9467;SDS011;4772;52.382;9.752;2022-09-25T06:22:14;16.83;;;8.97;;
9467;SDS011;4772;52.382;9.752;2022-09-25T06:24:40;16.17;;;9.27;;
9467;SDS011;4772;52.382;9.752;2022-09-25T06:27:06;16.73;;;9.50;;
9467;SDS011;4772;52.382;9.752;2022-09-25T06:29:32;13.27;;;9.03;;
9467;SDS011;4772;52.382;9.752;2022-09-25T06:31:58;18.40;;;9.20;;
9467;SDS011;4772;52.382;9.752;2022-09-25T06:34:24;14.80;;;9.33;;
9467;SDS011;4772;52.382;9.752;2022-09-25T06:36:52;17.40;;;9.17;;
9467;SDS011;4772;52.382;9.752;2022-09-25T06:39:18;14.17;;;8.90;;
9467;SDS011;4772;52.382;9.752;2022-09-25T06:41:44;16.30;;;9.50;;
9467;SDS011;4772;52.382;9.752;2022-09-25T06:44:10;14.37;;;8.80;;
9467;SDS011;4772;52.382;9.752;2022-09-25T06:46:36;14.33;;;9.03;;
9467;SDS011;4772;52.382;9.752;2022-09-25T06:49:02;16.87;;;8.70;;
9467;SDS011;4772;52.382;9.752;2022-09-25T06:51:32;14.77;;;8.00;;
9467;SDS011;4772;52.382;9.752;2022-09-25T06:53:58;15.30;;;8.30;;
9467;SDS011;4772;52.382;9.752;2022-09-25T06:56:24;12.93;;;7.93;;
9467;SDS011;4772;52.382;9.752;2022-09-25T06:58:50;14.40;;;7.93;;
9467;SDS011;4772;52.382;9.752;2022-09-25T07:01:17;12.97;;;8.03;;
9467;SDS011;4772;52.382;9.752;2022-09-25T07:03:43;17.43;;;7.40;;
9467;SDS011;4772;52.382;9.752;2022-09-25T07:06:09;15.80;;;8.23;;
9467;SDS011;4772;52.382;9.752;2022-09-25T07:08:36;16.77;;;9.30;;
9467;SDS011;4772;52.382;9.752;2022-09-25T07:11:02;14.07;;;7.60;;
9467;SDS011;4772;52.382;9.752;2022-09-25T07:13:30;13.87;;;7.70;;
9467;SDS011;4772;52.382;9.752;2022-09-25T07:15:57;10.27;;;6.87;;
9467;SDS011;4772;52.382;9.752;2022-09-25T07:18:24;18.53;;;7.00;;
9467;SDS011;4772;52.382;9.752;2022-09-25T07:20:50;10.27;;;6.83;;
9467;SDS011;4772;52.382;9.752;2022-09-25T07:23:17;13.87;;;7.80;;
9467;SDS011;4772;52.382;9.752;2022-09-25T07:25:44;15.63;;;7.57;;
9467;SDS011;4772;52.382;9.752;2022-09-25T07:28:11;16.27;;;8.17;;
9467;SDS011;4772;52.382;9.752;2022-09-25T07:30:38;19.07;;;7.77;;
9467;SDS011;4772;52.382;9.752;2022-09-25T07:33:03;17.67;;;8.40;;
9467;SDS011;4772;52.382;9.752;2022-09-25T07:35:29;18.70;;;8.77;;
9467;SDS011;4772;52.382;9.752;2022-09-25T07:37:56;15.63;;;9.30;;
9467;SDS011;4772;52.382;9.752;2022-09-25T07:40:23;15.90;;;9.17;;
9467;SDS011;4772;52.382;9.752;2022-09-25T07:42:51;18.00;;;8.77;;
9467;SDS011;4772;52.382;9.752;2022-09-25T07:45:17;16.37;;;9.00;;
9467;SDS011;4772;52.382;9.752;2022-09-25T07:47:43;15.07;;;9.70;;
9467;SDS011;4772;52.382;9.752;2022-09-25T07:50:09;15.50;;;10.37;;
9467;SDS011;4772;52.382;9.752;2022-09-25T07:52:35;16.77;;;10.53;;
9467;SDS011;4772;52.382;9.752;2022-09-25T07:55:01;17.40;;;10.00;;
9467;SDS011;4772;52.382;9.752;2022-09-25T07:57:28;17.50;;;11.00;;
9467;SDS011;4772;52.382;9.752;2022-09-25T07:59:54;15.67;;;10.63;;
9467;SDS011;4772;52.382;9.752;2022-09-25T08:02:20;17.97;;;10.67;;
9467;SDS011;4772;52.382;9.752;2022-09-25T08:04:46;17.83;;;11.43;;
9467;SDS011;4772;52.382;9.752;2022-09-25T08:07:12;18.47;;;10.20;;
9467;SDS011;4772;52.382;9.752;2022-09-25T08:09:38;17.90;;;11.20;;
9467;SDS011;4772;52.382;9.752;2022-09-25T08:12:04;17.20;;;10.87;;
9467;SDS011;4772;52.382;9.752;2022-09-25T08:14:31;21.77;;;11.30;;
9467;SDS011;4772;52.382;9.752;2022-09-25T08:16:57;19.20;;;11.23;;
9467;SDS011;4772;52.382;9.752;2022-09-25T08:19:23;16.33;;;10.93;;
9467;SDS011;4772;52.382;9.752;2022-09-25T08:21:51;21.50;;;11.33;;
9467;SDS011;4772;52.382;9.752;2022-09-25T08:24:17;18.17;;;10.77;;
9467;SDS011;4772;52.382;9.752;2022-09-25T08:26:43;20.77;;;10.17;;
9467;SDS011;4772;52.382;9.752;2022-09-25T08:29:09;19.57;;;10.37;;
9467;SDS011;4772;52.382;9.752;2022-09-25T08:31:35;17.83;;;9.77;;
9467;SDS011;4772;52.382;9.752;2022-09-25T08:34:01;15.63;;;9.53;;
9467;SDS011;4772;52.382;9.752;2022-09-25T08:36:27;16.43;;;9.53;;
9467;SDS011;4772;52.382;9.752;2022-09-25T08:38:53;15.57;;;9.33;;
9467;SDS011;4772;52.382;9.752;2022-09-25T08:41:24;14.70;;;9.80;;
9467;SDS011;4772;52.382;9.752;2022-09-25T08:43:54;14.60;;;9.43;;
9467;SDS011;4772;52.382;9.752;2022-09-25T08:46:23;17.93;;;9.70;;
9467;SDS011;4772;52.382;9.752;2022-09-25T08:49:09;17.83;;;8.87;;
9467;SDS011;4772;52.382;9.752;2022-09-25T08:51:42;10.73;;;8.47;;
9467;SDS011;4772;52.382;9.752;2022-09-25T08:54:12;16.23;;;9.00;;
9467;SDS011;4772;52.382;9.752;2022-09-25T08:56:40;15.33;;;8.50;;
9467;SDS011;4772;52.382;9.752;2022-09-25T08:59:13;13.73;;;8.30;;
9467;SDS011;4772;52.382;9.752;2022-09-25T09:01:49;12.93;;;8.53;;
9467;SDS011;4772;52.382;9.752;2022-09-25T09:04:30;13.27;;;8.83;;
9467;SDS011;4772;52.382;9.752;2022-09-25T09:06:59;11.87;;;8.33;;
9467;SDS011;4772;52.382;9.752;2022-09-25T09:09:48;14.73;;;7.60;;
9467;SDS011;4772;52.382;9.752;2022-09-25T09:12:18;15.27;;;8.30;;
9467;SDS011;4772;52.382;9.752;2022-09-25T09:14:49;10.33;;;6.90;;
9467;SDS011;4772;52.382;9.752;2022-09-25T09:17:20;12.07;;;8.07;;
9467;SDS011;4772;52.382;9.752;2022-09-25T09:19:48;11.20;;;6.93;;
9467;SDS011;4772;52.382;9.752;2022-09-25T09:22:23;10.83;;;7.00;;
9467;SDS011;4772;52.382;9.752;2022-09-25T09:30:06;11.80;;;7.43;;
9467;SDS011;4772;52.382;9.752;2022-09-25T09:40:22;13.87;;;7.63;;
9467;SDS011;4772;52.382;9.752;2022-09-25T09:45:30;14.47;;;8.03;;
9467;SDS011;4772;52.382;9.752;2022-09-25T09:52:58;11.87;;;8.57;;
9467;SDS011;4772;52.382;9.752;2022-09-25T09:55:29;12.00;;;8.33;;
9467;SDS011;4772;52.382;9.752;2022-09-25T09:57:59;13.93;;;8.10;;
9467;SDS011;4772;52.382;9.752;2022-09-25T10:00:29;14.07;;;7.73;;
9467;SDS011;4772;52.382;9.752;2022-09-25T10:02:57;11.07;;;7.97;;
9467;SDS011;4772;52.382;9.752;2022-09-25T10:05:35;10.70;;;7.80;;
9467;SDS011;4772;52.382;9.752;2022-09-25T10:08:02;12.90;;;7.97;;
9467;SDS011;4772;52.382;9.752;2022-09-25T10:10:33;10.90;;;8.27;;
9467;SDS011;4772;52.382;9.752;2022-09-25T10:13:00;8.93;;;7.93;;
9467;SDS011;4772;52.382;9.752;2022-09-25T10:15:34;9.47;;;7.07;;
9467;SDS011;4772;52.382;9.752;2022-09-25T10:18:02;11.30;;;6.97;;
9467;SDS011;4772;52.382;9.752;2022-09-25T10:20:32;10.20;;;7.30;;
9467;SDS011;4772;52.382;9.752;2022-09-25T10:23:01;10.03;;;7.40;;
9467;SDS011;4772;52.382;9.752;2022-09-25T10:25:35;13.37;;;8.67;;
9467;SDS011;4772;52.382;9.752;2022-09-25T10:28:19;13.20;;;7.40;;
9467;SDS011;4772;52.382;9.752;2022-09-25T10:30:45;9.53;;;7.00;;
9467;SDS011;4772;52.382;9.752;2022-09-25T10:33:21;9.63;;;7.37;;
9467;SDS011;4772;52.382;9.752;2022-09-25T10:35:48;10.90;;;7.30;;
9467;SDS011;4772;52.382;9.752;2022-09-25T10:40:46;11.27;;;8.07;;
9467;SDS011;4772;52.382;9.752;2022-09-25T10:43:21;13.37;;;7.57;;
9467;SDS011;4772;52.382;9.752;2022-09-25T10:48:37;11.73;;;7.40;;
9467;SDS011;4772;52.382;9.752;2022-09-25T10:51:22;11.63;;;6.90;;
9467;SDS011;4772;52.382;9.752;2022-09-25T10:53:55;9.63;;;6.57;;
9467;SDS011;4772;52.382;9.752;2022-09-25T10:56:34;16.30;;;8.63;;
9467;SDS011;4772;52.382;9.752;2022-09-25T10:59:06;11.83;;;7.37;;
9467;SDS011;4772;52.382;9.752;2022-09-25T11:01:38;31.90;;;15.00;;
9467;SDS011;4772;52.382;9.752;2022-09-25T11:04:09;14.37;;;7.63;;
9467;SDS011;4772;52.382;9.752;2022-09-25T11:06:38;19.10;;;10.73;;
9467;SDS011;4772;52.382;9.752;2022-09-25T11:09:10;8.03;;;4.87;;
9467;SDS011;4772;52.382;9.752;2022-09-25T11:11:37;5.93;;;4.40;;
9467;SDS011;4772;52.382;9.752;2022-09-25T11:14:05;7.97;;;4.17;;
9467;SDS011;4772;52.382;9.752;2022-09-25T11:21:54;6.97;;;4.00;;
9467;SDS011;4772;52.382;9.752;2022-09-25T11:27:16;6.20;;;3.90;;
9467;SDS011;4772;52.382;9.752;2022-09-25T11:43:03;6.77;;;2.40;;
9467;SDS011;4772;52.382;9.752;2022-09-25T11:45:52;5.63;;;2.40;;
9467;SDS011;4772;52.382;9.752;2022-09-25T11:56:16;3.60;;;2.70;;
9467;SDS011;4772;52.382;9.752;2022-09-25T12:14:29;2.03;;;1.43;;
9467;SDS011;4772;52.382;9.752;2022-09-25T12:22:06;3.35;;;1.98;;
9467;SDS011;4772;52.382;9.752;2022-09-25T12:24:36;3.78;;;1.67;;
9467;SDS011;4772;52.382;9.752;2022-09-25T12:38:25;3.40;;;1.75;;
9467;SDS011;4772;52.382;9.752;2022-09-25T12:43:21;2.20;;;1.45;;
9467;SDS011;4772;52.382;9.752;2022-09-25T12:46:10;2.83;;;1.70;;
9467;SDS011;4772;52.382;9.752;2022-09-25T12:48:47;3.13;;;1.65;;
9467;SDS011;4772;52.382;9.752;2022-09-25T12:51:20;5.90;;;1.77;;
9467;SDS011;4772;52.382;9.752;2022-09-25T12:53:57;2.10;;;1.40;;
9467;SDS011;4772;52.382;9.752;2022-09-25T12:56:41;4.43;;;1.93;;
9467;SDS011;4772;52.382;9.752;2022-09-25T12:59:31;3.47;;;1.65;;
9467;SDS011;4772;52.382;9.752;2022-09-25T13:04:42;3.80;;;1.67;;
9467;SDS011;4772;52.382;9.752;2022-09-25T13:09:41;2.35;;;1.48;;
9467;SDS011;4772;52.382;9.752;2022-09-25T13:14:57;3.33;;;1.80;;
9467;SDS011;4772;52.382;9.752;2022-09-25T13:17:24;2.97;;;1.55;;
9467;SDS011;4772;52.382;9.752;2022-09-25T13:19:50;2.55;;;1.40;;
9467;SDS011;4772;52.382;9.752;2022-09-25T13:22:23;3.05;;;1.50;;
9467;SDS011;4772;52.382;9.752;2022-09-25T13:27:19;2.17;;;1.58;;
9467;SDS011;4772;52.382;9.752;2022-09-25T13:29:54;2.58;;;1.67;;
9467;SDS011;4772;52.382;9.752;2022-09-25T13:32:21;3.83;;;1.60;;
9467;SDS011;4772;52.382;9.752;2022-09-25T13:34:50;3.60;;;1.50;;
9467;SDS011;4772;52.382;9.752;2022-09-25T13:37:16;2.25;;;1.58;;
9467;SDS011;4772;52.382;9.752;2022-09-25T13:39:46;4.40;;;1.50;;
9467;SDS011;4772;52.382;9.752;2022-09-25T13:55:07;3.83;;;1.50;;
9467;SDS011;4772;52.382;9.752;2022-09-25T14:02:57;2.93;;;1.33;;
9467;SDS011;4772;52.382;9.752;2022-09-25T14:05:34;2.63;;;1.37;;
9467;SDS011;4772;52.382;9.752;2022-09-25T14:08:06;2.50;;;1.33;;
9467;SDS011;4772;52.382;9.752;2022-09-25T14:10:33;3.80;;;1.20;;
9467;SDS011;4772;52.382;9.752;2022-09-25T14:12:59;2.50;;;1.47;;
9467;SDS011;4772;52.382;9.752;2022-09-25T14:15:30;1.40;;;1.30;;
9467;SDS011;4772;52.382;9.752;2022-09-25T14:17:59;3.20;;;1.60;;
9467;SDS011;4772;52.382;9.752;2022-09-25T14:20:45;3.67;;;1.50;;
9467;SDS011;4772;52.382;9.752;2022-09-25T14:25:45;2.90;;;1.27;;
9467;SDS011;4772;52.382;9.752;2022-09-25T14:28:21;2.67;;;1.30;;
9467;SDS011;4772;52.382;9.752;2022-09-25T14:39:05;2.00;;;1.20;;
9467;SDS011;4772;52.382;9.752;2022-09-25T14:41:43;2.77;;;1.60;;
9467;SDS011;4772;52.382;9.752;2022-09-25T14:44:19;2.47;;;1.40;;
9467;SDS011;4772;52.382;9.752;2022-09-25T14:46:49;2.63;;;1.40;;
9467;SDS011;4772;52.382;9.752;2022-09-25T14:51:45;2.83;;;1.60;;
9467;SDS011;4772;52.382;9.752;2022-09-25T14:54:20;1.93;;;1.50;;
9467;SDS011;4772;52.382;9.752;2022-09-25T14:56:48;1.93;;;1.60;;
9467;SDS011;4772;52.382;9.752;2022-09-25T14:59:16;5.73;;;1.80;;
9467;SDS011;4772;52.382;9.752;2022-09-25T15:01:44;2.97;;;1.90;;
9467;SDS011;4772;52.382;9.752;2022-09-25T15:04:11;3.60;;;2.40;;
9467;SDS011;4772;52.382;9.752;2022-09-25T15:06:37;3.93;;;2.50;;
9467;SDS011;4772;52.382;9.752;2022-09-25T15:11:52;3.17;;;1.90;;
9467;SDS011;4772;52.382;9.752;2022-09-25T15:14:19;3.10;;;1.60;;
9467;SDS011;4772;52.382;9.752;2022-09-25T15:16:45;2.93;;;1.47;;
9467;SDS011;4772;52.382;9.752;2022-09-25T15:19:31;2.27;;;1.60;;
9467;SDS011;4772;52.382;9.752;2022-09-25T15:21:58;3.97;;;1.50;;
9467;SDS011;4772;52.382;9.752;2022-09-25T15:24:26;2.33;;;1.40;;
9467;SDS011;4772;52.382;9.752;2022-09-25T15:26:57;5.93;;;1.67;;
9467;SDS011;4772;52.382;9.752;2022-09-25T15:29:34;4.93;;;1.80;;
9467;SDS011;4772;52.382;9.752;2022-09-25T15:32:02;2.87;;;1.57;;
9467;SDS011;4772;52.382;9.752;2022-09-25T15:34:29;3.43;;;1.87;;
9467;SDS011;4772;52.382;9.752;2022-09-25T15:37:06;3.90;;;1.90;;
9467;SDS011;4772;52.382;9.752;2022-09-25T15:39:32;5.37;;;2.30;;
9467;SDS011;4772;52.382;9.752;2022-09-25T15:42:04;5.77;;;2.53;;
9467;SDS011;4772;52.382;9.752;2022-09-25T15:44:30;5.13;;;3.17;;
9467;SDS011;4772;52.382;9.752;2022-09-25T15:46:57;3.40;;;2.20;;
9467;SDS011;4772;52.382;9.752;2022-09-25T15:49:28;4.33;;;2.57;;
9467;SDS011;4772;52.382;9.752;2022-09-25T15:51:59;6.27;;;3.77;;
9467;SDS011;4772;52.382;9.752;2022-09-25T15:56:58;4.93;;;2.87;;
9467;SDS011;4772;52.382;9.752;2022-09-25T15:59:26;4.23;;;2.53;;
9467;SDS011;4772;52.382;9.752;2022-09-25T16:01:53;4.80;;;2.67;;
9467;SDS011;4772;52.382;9.752;2022-09-25T16:04:38;3.00;;;2.03;;
9467;SDS011;4772;52.382;9.752;2022-09-25T16:07:21;3.33;;;2.10;;
9467;SDS011;4772;52.382;9.752;2022-09-25T16:09:48;4.80;;;1.90;;
9467;SDS011;4772;52.382;9.752;2022-09-25T16:14:45;4.87;;;1.80;;
9467;SDS011;4772;52.382;9.752;2022-09-25T16:17:15;4.73;;;2.90;;
9467;SDS011;4772;52.382;9.752;2022-09-25T16:19:46;4.53;;;2.70;;
9467;SDS011;4772;52.382;9.752;2022-09-25T16:22:22;5.97;;;3.20;;
9467;SDS011;4772;52.382;9.752;2022-09-25T16:24:51;4.00;;;2.20;;
9467;SDS011;4772;52.382;9.752;2022-09-25T16:27:29;8.93;;;2.80;;
9467;SDS011;4772;52.382;9.752;2022-09-25T16:29:57;6.57;;;2.50;;
9467;SDS011;4772;52.382;9.752;2022-09-25T16:32:24;4.00;;;2.47;;
9467;SDS011;4772;52.382;9.752;2022-09-25T16:34:56;7.43;;;3.00;;
9467;SDS011;4772;52.382;9.752;2022-09-25T16:37:22;3.93;;;2.10;;
9467;SDS011;4772;52.382;9.752;2022-09-25T16:40:06;4.20;;;2.20;;
9467;SDS011;4772;52.382;9.752;2022-09-25T16:42:33;5.00;;;2.20;;
9467;SDS011;4772;52.382;9.752;2022-09-25T16:45:14;4.13;;;2.90;;
9467;SDS011;4772;52.382;9.752;2022-09-25T16:47:40;4.27;;;2.07;;
9467;SDS011;4772;52.382;9.752;2022-09-25T16:50:08;4.03;;;2.70;;
9467;SDS011;4772;52.382;9.752;2022-09-25T16:52:34;4.60;;;2.50;;
9467;SDS011;4772;52.382;9.752;2022-09-25T16:55:03;3.13;;;2.30;;
9467;SDS011;4772;52.382;9.752;2022-09-25T16:57:34;6.03;;;2.20;;
9467;SDS011;4772;52.382;9.752;2022-09-25T17:00:00;2.43;;;1.70;;
9467;SDS011;4772;52.382;9.752;2022-09-25T17:02:30;4.67;;;2.03;;
9467;SDS011;4772;52.382;9.752;2022-09-25T17:04:59;5.27;;;3.20;;
9467;SDS011;4772;52.382;9.752;2022-09-25T17:07:26;5.97;;;2.43;;
9467;SDS011;4772;52.382;9.752;2022-09-25T17:09:52;3.40;;;2.20;;
9467;SDS011;4772;52.382;9.752;2022-09-25T17:12:20;5.57;;;2.30;;
9467;SDS011;4772;52.382;9.752;2022-09-25T17:14:46;3.57;;;1.60;;
9467;SDS011;4772;52.382;9.752;2022-09-25T17:17:13;3.80;;;1.60;;
9467;SDS011;4772;52.382;9.752;2022-09-25T17:19:40;4.07;;;2.33;;
9467;SDS011;4772;52.382;9.752;2022-09-25T17:22:07;3.83;;;2.10;;
9467;SDS011;4772;52.382;9.752;2022-09-25T17:24:33;4.23;;;1.90;;
9467;SDS011;4772;52.382;9.752;2022-09-25T17:26:59;3.70;;;2.30;;
9467;SDS011;4772;52.382;9.752;2022-09-25T17:29:28;3.37;;;2.20;;
9467;SDS011;4772;52.382;9.752;2022-09-25T17:31:55;5.03;;;1.83;;
9467;SDS011;4772;52.382;9.752;2022-09-25T17:34:23;2.97;;;1.70;;
9467;SDS011;4772;52.382;9.752;2022-09-25T17:36:49;5.87;;;1.90;;
9467;SDS011;4772;52.382;9.752;2022-09-25T17:39:16;3.83;;;1.80;;
9467;SDS011;4772;52.382;9.752;2022-09-25T17:41:42;3.17;;;1.70;;
9467;SDS011;4772;52.382;9.752;2022-09-25T17:44:09;4.17;;;2.13;;
9467;SDS011;4772;52.382;9.752;2022-09-25T17:46:37;3.77;;;2.07;;
9467;SDS011;4772;52.382;9.752;2022-09-25T17:49:03;4.07;;;2.03;;
9467;SDS011;4772;52.382;9.752;2022-09-25T17:51:29;5.80;;;2.00;;
9467;SDS011;4772;52.382;9.752;2022-09-25T17:53:56;4.97;;;2.33;;
9467;SDS011;4772;52.382;9.752;2022-09-25T17:56:23;6.70;;;2.63;;